Usk, WA

10:31 AM PDT on August 22, 2014 (GMT -0700)
Sandpoint | Change Station
CLOSE
Current Station
Airport
Location: Sandpoint,
Elevation: 2126 ft
Nearby Weather Stations

Elev 2126 ft 48.30 °N, 116.56 °W | Updated 16 minutes ago

Scattered Clouds
Scattered Clouds
63 °F
Feels Like 63 °F
N
15
Wind Variable Wind from NNE
Gusts 21 mph

Today
High -- | Low -- °F
--% Chance of Precip.
Yesterday
High -- | Low -- °F
Precip. -- in
5:53 AM 7:49 PM
Waning Crescent, 7% visible
Pressure 30.04 in
Visibility 10.0 miles
Clouds Scattered Clouds 8500 ft
Dew Point 52 °F
Humidity 68%
Rainfall 0.00 in
Snow Depth Not available.
UV 5 out of 12
Pollen 6.60 out of 12
PM2.5 Good
Flu Activity Not available.
METAR KSZT 221715Z AUTO 02013G18KT 10SM SCT085 17/11 A3004 RMK AO2

More Conditions Fewer Conditions

Pressure 30.04 in
Visibility 10.0 miles
Clouds Scattered Clouds 8500 ft
Dew Point 52 °F
Humidity 68%
Rainfall 0.00 in
Snow Depth Not available.
UV 5 out of 12
Pollen 6.60 out of 12
PM2.5 Good
Flu Activity Not available.
METAR KSZT 221715Z AUTO 02013G18KT 10SM SCT085 17/11 A3004 RMK AO2

More Conditions Fewer Conditions

Nowcast | as of 8:56 am PDT on August 22, 2014

Scattered thunderstorms this morning...as of 9am showers and thunderstorms were in Stevens and Pend Oreille. These storms have been producing brief heavy rain...small hail and frequent lightning. Storms are moving to the north northeast at around 25 mph. Locations to be impacted include but are not limited to Wellpinit...Deer Park and Springdale.

×

10-Day Weather Forecast

Almanac

Astronomy

Aug. 22, 2014 Rise Set
Actual Time 5:53 AM PDT 7:49 PM PDT
Civil Twilight 5:19 AM PDT 8:23 PM PDT
Nautical Twilight 4:38 AM PDT 9:04 PM PDT
Astronomical Twilight 3:52 AM PDT 9:50 PM PDT
Moon 3:14 AM PDT 6:05 PM PDT
Length of Visible Light 15h 03m
Length of Day
13h 56m
Tomorrow will be 3m 17s shorter.
Waning Crescent, 7% of the Moon is Illuminated
Today
Waning Crescent
Aug 25
New
Sep 2
First Quarter
Sep 8
Full
Sep 15
Last Quarter

Today's Extremes

State Highs State Lows

Community

WunderPhotos

Upload Photos

1,746,205 photos uploaded!

WunderBlogs® & News

Nearby

Air Quality

  Air Quality AQ Index Pollutant
Yesterday Good
OZONE
Yesterday Good
PM10
Current Good
PM2.5
Friday Good
PM10
Friday Good
OZONE
Saturday Good
PM10
Saturday Good
OZONE
Sunday Good
PM10
Sunday Good
OZONE
Monday Good
PM10
Monday Good
OZONE

Snow Depth

Station Depth Elevation
Bunchgrass Meadow 0 in 5000 ft
Quartz Peak 1 in 4700 ft
Sentinel Butte 0 in 4920 ft
Moses Mountain 1 in 5300 ft
Sourdough Gulch 0 in 4000 ft

Earthquake Activity

City Distance Mag. Time & Date
No recent earthquake activity has been reported nearby.
Minimum magnitude displayed is 2.5.

Coastal Water Temperatures

Place Temperature
No Stations Reporting

Nearby Weather Stations